createdAt,value
2019-03-02T00:01:52.954Z,24.13
2019-03-02T00:03:54.549Z,24.14
2019-03-02T00:05:57.094Z,23.87
2019-03-02T00:07:57.783Z,23.85
2019-03-02T00:09:59.383Z,23.75
2019-03-02T00:12:01.189Z,23.44
2019-03-02T00:14:02.782Z,23.63
2019-03-02T00:16:07.508Z,23.79
2019-03-02T00:18:06.027Z,23.93
2019-03-02T00:20:07.640Z,23.90
2019-03-02T00:22:09.299Z,23.74
2019-03-02T00:24:10.914Z,23.77
2019-03-02T00:26:12.519Z,23.83
2019-03-02T00:28:14.141Z,23.80
2019-03-02T00:30:17.778Z,24.05
2019-03-02T00:32:17.384Z,24.30
2019-03-02T00:34:19.019Z,24.05
2019-03-02T00:36:20.653Z,23.96
2019-03-02T00:38:22.270Z,24.27
2019-03-02T00:40:23.864Z,24.56
2019-03-02T00:42:25.444Z,24.01
2019-03-02T00:44:27.084Z,22.69
2019-03-02T00:46:28.697Z,22.59
2019-03-02T00:48:30.358Z,22.66
2019-03-02T00:50:33.668Z,22.67
2019-03-02T00:52:33.601Z,22.62
2019-03-02T00:54:35.226Z,22.55
2019-03-02T00:56:39.893Z,22.51
2019-03-02T00:58:38.490Z,22.45
2019-03-02T01:00:40.086Z,22.38
2019-03-02T01:02:41.677Z,22.32
2019-03-02T01:04:43.292Z,22.27
2019-03-02T01:06:48.362Z,22.22
2019-03-02T01:08:46.541Z,22.18
2019-03-02T01:10:48.143Z,22.14
2019-03-02T01:12:49.759Z,22.10
2019-03-02T01:14:51.397Z,22.07
2019-03-02T01:16:55.220Z,22.05
2019-03-02T01:18:54.649Z,22.05
2019-03-02T01:20:56.296Z,22.02
2019-03-02T01:22:57.904Z,21.99
2019-03-02T01:24:59.551Z,21.99
2019-03-02T01:27:01.269Z,21.97
2019-03-02T01:29:02.860Z,21.96
2019-03-02T01:31:05.133Z,21.97
2019-03-02T01:33:06.114Z,21.97
2019-03-02T01:35:07.696Z,21.98
2019-03-02T01:37:09.340Z,21.98
2019-03-02T01:39:11.003Z,21.96
2019-03-02T01:41:14.007Z,21.98
2019-03-02T01:43:14.316Z,22.00
2019-03-02T01:45:15.914Z,21.98
2019-03-02T01:47:17.542Z,21.95
2019-03-02T01:49:19.143Z,21.91
2019-03-02T01:51:23.093Z,21.87
2019-03-02T01:53:22.434Z,21.83
2019-03-02T01:55:24.044Z,21.81
2019-03-02T01:57:25.660Z,21.80
2019-03-02T01:59:27.459Z,21.79
2019-03-02T02:01:29.100Z,21.80
2019-03-02T02:03:30.697Z,21.79
2019-03-02T02:05:33.111Z,21.78
2019-03-02T02:07:33.952Z,21.77
2019-03-02T02:09:40.175Z,21.81
2019-03-02T02:11:37.240Z,21.85
2019-03-02T02:13:42.561Z,21.87
2019-03-02T02:15:40.540Z,21.90
2019-03-02T02:17:42.151Z,21.90
2019-03-02T02:19:43.752Z,21.89
2019-03-02T02:21:45.386Z,21.89
2019-03-02T02:23:49.769Z,21.89
2019-03-02T02:25:48.648Z,21.86
2019-03-02T02:27:50.264Z,21.88
2019-03-02T02:29:51.866Z,21.85
2019-03-02T02:31:53.526Z,21.78
2019-03-02T02:33:55.120Z,21.76
2019-03-02T02:35:56.723Z,21.75
2019-03-02T02:37:58.350Z,21.73
2019-03-02T02:39:59.958Z,21.72
2019-03-02T02:42:05.245Z,21.72
2019-03-02T02:44:03.253Z,21.73
2019-03-02T02:46:04.868Z,21.74
2019-03-02T02:48:06.476Z,21.74
2019-03-02T02:50:08.092Z,21.75
2019-03-02T02:52:09.749Z,21.76
2019-03-02T02:54:11.476Z,21.78
2019-03-02T02:56:14.370Z,21.79
2019-03-02T02:58:17.468Z,21.78
2019-03-02T03:00:17.573Z,21.81
2019-03-02T03:02:18.050Z,21.85
2019-03-02T03:04:19.647Z,21.84
2019-03-02T03:06:21.289Z,21.86
2019-03-02T03:08:22.899Z,21.64
2019-03-02T03:10:33.596Z,21.86
2019-03-02T03:12:35.194Z,21.85
2019-03-02T03:14:36.791Z,21.85
2019-03-02T03:16:38.408Z,21.87
2019-03-02T03:18:40.016Z,21.87
2019-03-02T03:20:47.678Z,21.87
2019-03-02T03:22:46.187Z,21.85
2019-03-02T03:24:44.913Z,21.82
2019-03-02T03:26:46.681Z,21.79
2019-03-02T03:28:48.278Z,21.78
2019-03-02T03:30:49.910Z,21.81
2019-03-02T03:32:56.157Z,21.87
2019-03-02T03:34:53.184Z,21.90
2019-03-02T03:36:54.790Z,21.85
2019-03-02T03:38:56.441Z,21.80
2019-03-02T03:41:00.294Z,21.77
2019-03-02T03:43:03.344Z,21.74
2019-03-02T03:45:04.391Z,21.72
2019-03-02T03:47:03.173Z,21.68
2019-03-02T03:49:04.802Z,21.67
2019-03-02T03:51:06.411Z,21.69
2019-03-02T03:53:08.014Z,21.68
2019-03-02T03:55:09.614Z,21.66
2019-03-02T03:57:11.221Z,21.64
2019-03-02T03:59:14.173Z,21.63
2019-03-02T04:01:17.749Z,21.66
2019-03-02T04:03:16.118Z,21.66
2019-03-02T04:05:17.714Z,21.65
2019-03-02T04:07:19.314Z,21.63
2019-03-02T04:09:20.943Z,21.64
2019-03-02T04:11:22.548Z,21.64
2019-03-02T04:13:24.164Z,21.64
2019-03-02T04:15:25.773Z,21.63
2019-03-02T04:17:27.371Z,21.63
2019-03-02T04:19:29.604Z,21.69
2019-03-02T04:21:30.628Z,21.73
2019-03-02T04:23:32.223Z,21.59
2019-03-02T04:25:33.860Z,21.63
2019-03-02T04:27:35.468Z,21.64
2019-03-02T04:29:37.069Z,21.67
2019-03-02T04:31:38.744Z,21.68
2019-03-02T04:33:43.356Z,21.68
2019-03-02T04:35:42.008Z,21.70
2019-03-02T04:37:43.596Z,21.72
2019-03-02T04:39:46.456Z,21.72
2019-03-02T04:41:46.876Z,21.71
2019-03-02T04:43:50.706Z,21.68
2019-03-02T04:45:50.134Z,21.70
2019-03-02T04:47:51.738Z,21.73
2019-03-02T04:49:53.349Z,21.76
2019-03-02T04:51:54.981Z,21.76
2019-03-02T04:53:58.113Z,21.76
2019-03-02T04:55:58.249Z,21.75
2019-03-02T04:57:59.841Z,21.74
2019-03-02T05:00:01.443Z,21.74
2019-03-02T05:02:03.037Z,21.74
2019-03-02T05:04:04.628Z,21.76
2019-03-02T05:06:06.252Z,21.73
2019-03-02T05:08:07.850Z,21.70
2019-03-02T05:10:09.456Z,21.69
2019-03-02T05:12:11.626Z,21.66
2019-03-02T05:14:12.737Z,21.65
2019-03-02T05:16:14.366Z,21.63
2019-03-02T05:18:18.132Z,21.62
2019-03-02T05:20:17.655Z,21.64
2019-03-02T05:22:19.717Z,21.63
2019-03-02T05:24:20.954Z,21.61
2019-03-02T05:26:22.551Z,21.61
2019-03-02T05:28:24.173Z,21.59
2019-03-02T05:30:26.698Z,21.57
2019-03-02T05:32:27.436Z,21.55
2019-03-02T05:34:29.066Z,21.55
2019-03-02T05:36:30.680Z,21.54
2019-03-02T05:38:32.334Z,21.51
2019-03-02T05:40:33.930Z,21.53
2019-03-02T05:42:35.531Z,21.53
2019-03-02T05:44:39.135Z,21.53
2019-03-02T05:46:38.812Z,21.52
2019-03-02T05:48:42.956Z,21.53
2019-03-02T05:50:42.062Z,21.51
2019-03-02T05:52:43.671Z,21.50
2019-03-02T05:54:45.299Z,21.51
2019-03-02T05:56:46.908Z,21.50
2019-03-02T05:58:51.150Z,21.51
2019-03-02T06:00:50.151Z,21.50
2019-03-02T06:02:51.745Z,21.49
2019-03-02T06:04:53.767Z,21.51
2019-03-02T06:06:55.468Z,21.50
2019-03-02T06:08:56.690Z,21.51
2019-03-02T06:11:01.893Z,21.52
2019-03-02T06:12:59.912Z,21.58
2019-03-02T06:15:03.995Z,21.62
2019-03-02T06:17:03.191Z,21.62
2019-03-02T06:19:04.786Z,21.64
2019-03-02T06:21:07.762Z,21.61
2019-03-02T06:23:08.076Z,21.61
2019-03-02T06:25:19.371Z,21.62
2019-03-02T06:27:11.770Z,21.61
2019-03-02T06:29:13.068Z,21.59
2019-03-02T06:31:15.826Z,21.57
2019-03-02T06:33:16.368Z,21.58
2019-03-02T06:35:17.955Z,21.59
2019-03-02T06:37:19.988Z,21.63
2019-03-02T06:39:21.268Z,21.62
2019-03-02T06:41:22.880Z,21.60
2019-03-02T06:43:24.468Z,21.60
2019-03-02T06:45:26.076Z,21.69
2019-03-02T06:47:30.007Z,21.74
2019-03-02T06:49:29.332Z,21.72
2019-03-02T06:51:30.931Z,21.70
2019-03-02T06:53:34.020Z,21.69
2019-03-02T06:55:34.188Z,21.69
2019-03-02T06:57:35.786Z,21.67
2019-03-02T06:59:39.375Z,21.66
2019-03-02T07:01:39.071Z,21.65
2019-03-02T07:03:42.863Z,21.64
2019-03-02T07:05:42.313Z,21.62
2019-03-02T07:07:43.895Z,21.58
2019-03-02T07:09:46.161Z,21.53
2019-03-02T07:11:47.180Z,21.51
2019-03-02T07:13:48.825Z,21.43
2019-03-02T07:15:50.436Z,21.38
2019-03-02T07:17:57.756Z,21.35
2019-03-02T07:19:59.360Z,21.31
2019-03-02T07:22:00.994Z,21.31
2019-03-02T07:24:02.608Z,21.30
2019-03-02T07:26:04.206Z,21.24
2019-03-02T07:28:07.251Z,21.25
2019-03-02T07:30:07.517Z,21.24
2019-03-02T07:32:09.136Z,21.26
2019-03-02T07:34:10.761Z,21.30
2019-03-02T07:36:12.355Z,21.35
2019-03-02T07:38:16.910Z,21.38
2019-03-02T07:40:15.668Z,21.41
2019-03-02T07:42:17.267Z,21.48
2019-03-02T07:44:21.970Z,21.54
2019-03-02T07:46:20.557Z,21.53
2019-03-02T07:48:22.200Z,21.54
2019-03-02T07:50:25.932Z,21.61
2019-03-02T07:52:25.435Z,21.66
2019-03-02T07:54:27.057Z,21.68
2019-03-02T07:56:29.565Z,21.65
2019-03-02T07:58:30.312Z,21.62
2019-03-02T08:00:31.923Z,21.61
2019-03-02T08:02:33.517Z,21.61
2019-03-02T08:04:38.403Z,21.66
2019-03-02T08:06:36.806Z,21.65
2019-03-02T08:08:38.415Z,21.65
2019-03-02T08:10:40.027Z,21.64
2019-03-02T08:12:41.628Z,21.65
2019-03-02T08:14:44.496Z,21.65
2019-03-02T08:16:44.910Z,21.66
2019-03-02T08:18:46.524Z,21.66
2019-03-02T08:20:48.140Z,21.63
2019-03-02T08:22:49.740Z,21.61
2019-03-02T08:24:51.392Z,21.59
2019-03-02T08:26:53.021Z,21.61
2019-03-02T08:28:54.622Z,21.62
2019-03-02T08:30:56.245Z,21.60
2019-03-02T08:32:59.150Z,21.64
2019-03-02T08:34:59.494Z,21.87
2019-03-02T08:37:01.126Z,21.76
2019-03-02T08:39:02.763Z,21.66
2019-03-02T08:41:04.351Z,21.68
2019-03-02T08:43:05.975Z,21.66
2019-03-02T08:45:07.610Z,21.67
2019-03-02T08:47:09.847Z,21.65
2019-03-02T08:49:10.879Z,21.68
2019-03-02T08:51:12.518Z,21.67
2019-03-02T08:53:14.122Z,21.68
2019-03-02T08:55:15.758Z,21.67
2019-03-02T08:57:19.592Z,21.66
2019-03-02T08:59:19.076Z,21.66
2019-03-02T09:01:20.688Z,21.65
2019-03-02T09:03:22.288Z,21.67
2019-03-02T09:05:42.948Z,21.69
2019-03-02T09:07:25.567Z,21.68
2019-03-02T09:09:27.176Z,21.69
2019-03-02T09:11:28.787Z,21.68
2019-03-02T09:13:30.933Z,21.70
2019-03-02T09:15:32.061Z,21.70
2019-03-02T09:17:33.676Z,21.69
2019-03-02T09:19:35.303Z,21.72
2019-03-02T09:21:36.888Z,21.72
2019-03-02T09:23:38.528Z,21.75
2019-03-02T09:25:40.126Z,21.75
2019-03-02T09:27:41.722Z,21.78
2019-03-02T09:29:43.346Z,21.76
2019-03-02T09:31:46.792Z,21.76
2019-03-02T09:33:46.680Z,21.74
2019-03-02T09:35:49.075Z,21.78
2019-03-02T09:37:49.946Z,21.79
2019-03-02T09:39:51.550Z,21.81
2019-03-02T09:41:53.160Z,21.83
2019-03-02T09:44:00.026Z,21.81
2019-03-02T09:45:56.437Z,21.81
2019-03-02T09:47:58.034Z,21.83
2019-03-02T09:49:59.632Z,21.83
2019-03-02T09:52:01.225Z,21.85
2019-03-02T09:54:02.866Z,21.89
2019-03-02T09:56:04.447Z,21.90
2019-03-02T09:58:06.469Z,21.83
2019-03-02T10:00:07.692Z,21.97
2019-03-02T10:02:10.588Z,21.98
2019-03-02T10:04:10.945Z,21.99
2019-03-02T10:06:12.574Z,21.96
2019-03-02T10:08:14.241Z,21.96
2019-03-02T10:10:15.862Z,21.95
2019-03-02T10:12:17.476Z,21.93
2019-03-02T10:14:20.783Z,21.93
2019-03-02T10:16:20.773Z,21.93
2019-03-02T10:18:22.369Z,21.94
2019-03-02T10:20:24.028Z,21.94
2019-03-02T10:22:25.622Z,21.95
2019-03-02T10:24:27.230Z,21.91
2019-03-02T10:26:28.868Z,21.92
2019-03-02T10:28:34.111Z,21.77
2019-03-02T10:30:32.155Z,21.57
2019-03-02T10:32:33.757Z,21.44
2019-03-02T10:34:38.415Z,21.34
2019-03-02T10:36:37.049Z,21.28
2019-03-02T10:38:38.659Z,19.90
2019-03-02T10:40:41.701Z,18.62
2019-03-02T10:42:41.931Z,19.35
2019-03-02T10:44:43.537Z,20.60
2019-03-02T10:46:45.144Z,21.50
2019-03-02T10:48:46.742Z,22.04
2019-03-02T10:50:48.338Z,22.36
2019-03-02T10:52:50.061Z,22.47
2019-03-02T10:54:51.631Z,22.75
2019-03-02T10:56:53.235Z,22.98
2019-03-02T10:58:54.871Z,23.05
2019-03-02T11:00:56.480Z,23.12
2019-03-02T11:02:58.089Z,23.23
2019-03-02T11:04:59.686Z,23.40
2019-03-02T11:07:16.043Z,23.25
2019-03-02T11:09:32.849Z,23.19
2019-03-02T11:11:48.941Z,23.21
2019-03-02T11:13:56.451Z,23.33
2019-03-02T11:15:57.802Z,23.41
2019-03-02T11:18:05.215Z,23.56
2019-03-02T11:20:24.333Z,23.54
2019-03-02T11:22:39.066Z,23.64
2019-03-02T11:24:57.498Z,23.74
2019-03-02T11:27:09.640Z,23.97
2019-03-02T11:29:10.717Z,24.27
2019-03-02T11:31:18.455Z,24.24
2019-03-02T11:33:20.054Z,24.09
2019-03-02T11:35:32.440Z,24.02
2019-03-02T11:37:36.677Z,23.93
2019-03-02T11:39:54.114Z,23.93
2019-03-02T11:42:13.939Z,24.13
2019-03-02T11:44:28.217Z,23.28
2019-03-02T11:46:29.811Z,23.11
2019-03-02T11:48:36.202Z,23.58
2019-03-02T11:50:40.411Z,23.75
2019-03-02T11:52:44.650Z,23.81
2019-03-02T11:54:51.756Z,22.27
2019-03-02T11:56:53.353Z,22.46
2019-03-02T11:58:58.337Z,22.42
2019-03-02T12:01:14.809Z,22.45
2019-03-02T12:03:22.067Z,23.29
2019-03-02T12:05:28.615Z,23.65
2019-03-02T12:07:32.900Z,24.04
2019-03-02T12:09:38.333Z,24.01
2019-03-02T12:11:57.563Z,23.82
2019-03-02T12:14:17.052Z,23.86
2019-03-02T12:16:22.130Z,23.96
2019-03-02T12:18:23.460Z,24.10
2019-03-02T12:20:25.530Z,24.05
2019-03-02T12:22:34.139Z,24.12
2019-03-02T12:24:54.798Z,24.29
2019-03-02T12:26:58.865Z,24.18
2019-03-02T12:29:09.205Z,24.13
2019-03-02T12:31:14.433Z,24.15
2019-03-02T12:33:16.933Z,24.10
2019-03-02T12:35:18.144Z,24.09
2019-03-02T12:37:32.864Z,24.05
2019-03-02T12:39:32.144Z,24.10
2019-03-02T12:41:52.658Z,23.60
2019-03-02T12:44:05.002Z,23.53
2019-03-02T12:46:09.456Z,23.73
2019-03-02T12:48:23.636Z,23.95
2019-03-02T12:50:31.089Z,23.67
2019-03-02T12:52:52.762Z,23.87
2019-03-02T12:54:55.991Z,24.10
2019-03-02T12:57:12.524Z,23.85
2019-03-02T12:59:15.964Z,23.78
2019-03-02T13:01:18.533Z,23.84
2019-03-02T13:03:34.455Z,23.52
2019-03-02T13:05:38.120Z,23.78
2019-03-02T13:07:47.056Z,23.88
2019-03-02T13:09:48.741Z,23.86
2019-03-02T13:11:54.964Z,23.95
2019-03-02T13:13:58.402Z,23.83
2019-03-02T13:16:09.922Z,23.73
2019-03-02T13:18:17.263Z,23.46
2019-03-02T13:20:22.498Z,23.44
2019-03-02T13:22:26.133Z,23.42
2019-03-02T13:24:31.466Z,23.49
2019-03-02T13:26:33.908Z,23.39
2019-03-02T13:28:36.999Z,23.34
2019-03-02T13:30:37.800Z,23.33
2019-03-02T13:32:56.046Z,23.35
2019-03-02T13:35:12.430Z,23.41
2019-03-02T13:37:20.322Z,23.67
2019-03-02T13:39:35.194Z,23.51
2019-03-02T13:41:37.614Z,23.27
2019-03-02T13:43:39.206Z,23.51
2019-03-02T13:45:43.343Z,23.78
2019-03-02T13:47:48.752Z,23.72
2019-03-02T13:49:49.246Z,23.23
2019-03-02T13:51:56.660Z,23.54
2019-03-02T13:54:02.845Z,23.73
2019-03-02T13:56:06.713Z,23.98
2019-03-02T13:58:23.327Z,24.03
2019-03-02T14:00:47.749Z,23.84
2019-03-02T14:02:47.099Z,23.77
2019-03-02T14:04:52.505Z,23.59
2019-03-02T14:06:58.002Z,23.94
2019-03-02T14:09:20.171Z,23.83
2019-03-02T14:11:36.462Z,23.87
2019-03-02T14:13:37.488Z,23.91
2019-03-02T14:15:55.286Z,23.87
2019-03-02T14:18:07.187Z,24.08
2019-03-02T14:20:20.722Z,23.97
2019-03-02T14:22:22.234Z,23.94
2019-03-02T14:24:24.837Z,23.95
2019-03-02T14:26:42.154Z,24.10
2019-03-02T14:28:43.736Z,23.87
2019-03-02T14:30:52.568Z,23.86
2019-03-02T14:32:53.523Z,23.85
2019-03-02T14:34:56.065Z,23.74
2019-03-02T14:37:03.289Z,23.74
2019-03-02T14:39:07.432Z,23.71
2019-03-02T14:41:18.972Z,23.76
2019-03-02T14:43:26.266Z,24.20
2019-03-02T14:45:30.803Z,23.98
2019-03-02T14:47:33.042Z,23.95
2019-03-02T14:49:49.925Z,23.76
2019-03-02T14:51:57.470Z,23.64
2019-03-02T14:54:04.676Z,23.64
2019-03-02T14:56:23.917Z,23.63
2019-03-02T14:58:34.127Z,23.56
2019-03-02T15:00:35.384Z,23.30
2019-03-02T15:02:52.490Z,23.00
2019-03-02T15:04:56.487Z,23.29
2019-03-02T15:07:02.022Z,23.46
2019-03-02T15:09:08.763Z,23.46
2019-03-02T15:11:10.752Z,23.51
2019-03-02T15:13:12.354Z,23.57
2019-03-02T15:15:20.347Z,23.59
2019-03-02T15:17:21.279Z,23.88
2019-03-02T15:19:27.196Z,24.01
2019-03-02T15:21:44.365Z,23.97
2019-03-02T15:23:44.693Z,23.95
2019-03-02T15:26:02.161Z,24.02
2019-03-02T15:28:06.721Z,24.12
2019-03-02T15:30:26.518Z,23.94
2019-03-02T15:32:42.690Z,24.31
2019-03-02T15:34:49.640Z,24.24
2019-03-02T15:37:00.845Z,24.19
2019-03-02T15:39:05.252Z,24.21
2019-03-02T15:41:09.335Z,24.16
2019-03-02T15:43:15.212Z,24.07
2019-03-02T15:45:32.599Z,24.22
2019-03-02T15:47:50.744Z,24.13
2019-03-02T15:49:56.720Z,24.26
2019-03-02T15:51:59.456Z,24.28
2019-03-02T15:54:05.615Z,24.03
2019-03-02T15:56:07.686Z,24.09
2019-03-02T15:58:14.274Z,24.07
2019-03-02T16:00:16.863Z,23.82
2019-03-02T16:02:19.388Z,23.20
2019-03-02T16:04:24.746Z,23.37
2019-03-02T16:06:27.955Z,23.72
2019-03-02T16:08:28.862Z,24.00
2019-03-02T16:10:32.298Z,23.89
2019-03-02T16:12:40.988Z,23.89
2019-03-02T16:14:56.367Z,23.77
2019-03-02T16:17:03.598Z,23.74
2019-03-02T16:19:06.087Z,23.18
2019-03-02T16:21:05.732Z,22.95
2019-03-02T16:23:11.085Z,22.75
2019-03-02T16:25:19.386Z,22.83
2019-03-02T16:27:35.947Z,23.15
2019-03-02T16:29:43.313Z,23.27
2019-03-02T16:31:50.008Z,23.39
2019-03-02T16:33:52.477Z,23.62
2019-03-02T16:36:02.549Z,23.70
2019-03-02T16:38:05.349Z,23.66
2019-03-02T16:40:08.850Z,23.43
2019-03-02T16:42:20.372Z,23.91
2019-03-02T16:44:31.937Z,23.72
2019-03-02T16:46:44.200Z,23.94
2019-03-02T16:49:01.007Z,23.89
2019-03-02T16:51:04.347Z,23.79
2019-03-02T16:53:09.469Z,24.02
2019-03-02T16:55:28.931Z,24.07
2019-03-02T16:57:34.590Z,24.19
2019-03-02T16:59:36.675Z,24.27
2019-03-02T17:01:43.907Z,24.06
2019-03-02T17:03:48.013Z,23.41
2019-03-02T17:05:49.627Z,23.41
2019-03-02T17:07:58.701Z,23.89
2019-03-02T17:09:57.454Z,23.74
2019-03-02T17:12:15.923Z,23.68
2019-03-02T17:14:18.584Z,24.01
2019-03-02T17:16:25.750Z,23.87
2019-03-02T17:18:30.875Z,23.61
2019-03-02T17:20:35.014Z,23.29
2019-03-02T17:22:53.426Z,23.69
2019-03-02T17:24:55.016Z,23.86
2019-03-02T17:27:02.328Z,23.75
2019-03-02T17:29:08.154Z,23.55
2019-03-02T17:31:13.821Z,23.64
2019-03-02T17:33:20.248Z,23.88
2019-03-02T17:35:25.576Z,23.39
2019-03-02T17:37:29.846Z,22.95
2019-03-02T17:39:39.208Z,22.68
2019-03-02T17:41:40.827Z,22.56
2019-03-02T17:43:46.788Z,22.44
2019-03-02T17:45:45.542Z,22.39
2019-03-02T17:47:52.816Z,22.37
2019-03-02T17:49:57.180Z,22.31
2019-03-02T17:52:04.392Z,22.34
2019-03-02T17:54:20.869Z,22.35
2019-03-02T17:56:25.016Z,22.36
2019-03-02T17:58:28.045Z,22.37
2019-03-02T18:00:28.281Z,22.41
2019-03-02T18:02:31.550Z,22.44
2019-03-02T18:04:35.378Z,22.45
2019-03-02T18:06:38.284Z,22.47
2019-03-02T18:08:44.974Z,22.51
2019-03-02T18:10:55.159Z,22.53
2019-03-02T18:13:06.106Z,22.56
2019-03-02T18:15:09.803Z,22.61
2019-03-02T18:17:11.430Z,22.61
2019-03-02T18:19:13.016Z,22.63
2019-03-02T18:21:14.610Z,22.63
2019-03-02T18:23:18.929Z,22.67
2019-03-02T18:25:17.873Z,22.66
2019-03-02T18:27:20.090Z,22.65
2019-03-02T18:29:21.140Z,22.63
2019-03-02T18:31:22.774Z,22.61
2019-03-02T18:33:25.423Z,22.58
2019-03-02T18:35:27.007Z,22.75
2019-03-02T18:37:30.516Z,23.09
2019-03-02T18:39:30.312Z,23.43
2019-03-02T18:41:31.968Z,23.55
2019-03-02T18:43:33.579Z,23.01
2019-03-02T18:45:35.800Z,22.76
2019-03-02T18:47:36.884Z,23.35
2019-03-02T18:49:39.297Z,23.52
2019-03-02T18:52:00.731Z,23.71
2019-03-02T18:54:11.927Z,23.82
2019-03-02T18:56:09.572Z,23.85
2019-03-02T18:58:11.254Z,23.70
2019-03-02T19:00:16.142Z,23.82
2019-03-02T19:02:14.525Z,23.78
2019-03-02T19:04:16.108Z,23.77
2019-03-02T19:06:17.707Z,23.70
2019-03-02T19:08:19.292Z,23.71
2019-03-02T19:10:20.900Z,23.65
2019-03-02T19:12:22.539Z,23.72
2019-03-02T19:14:24.159Z,23.82
2019-03-02T19:16:25.796Z,23.77
2019-03-02T19:18:27.437Z,23.69
2019-03-02T19:20:29.038Z,23.79
2019-03-02T19:22:30.680Z,23.90
2019-03-02T19:24:32.293Z,23.78
2019-03-02T19:26:33.894Z,23.74
2019-03-02T19:28:35.548Z,23.61
2019-03-02T19:30:37.227Z,23.55
2019-03-02T19:32:38.871Z,23.66
2019-03-02T19:34:40.465Z,23.50
2019-03-02T19:36:42.066Z,23.26
2019-03-02T19:38:43.693Z,23.51
2019-03-02T19:40:45.304Z,23.67
2019-03-02T19:42:46.935Z,23.61
2019-03-02T19:44:48.520Z,23.55
2019-03-02T19:46:50.167Z,23.56
2019-03-02T19:48:51.765Z,23.59
2019-03-02T19:50:53.362Z,23.58
2019-03-02T19:52:55.096Z,23.49
2019-03-02T19:54:56.744Z,23.01
2019-03-02T19:56:58.338Z,22.63
2019-03-02T19:58:59.935Z,22.85
2019-03-02T20:01:01.534Z,23.15
2019-03-02T20:03:03.131Z,23.32
2019-03-02T20:05:04.793Z,23.31
2019-03-02T20:07:06.420Z,23.48
2019-03-02T20:09:08.073Z,23.75
2019-03-02T20:11:09.735Z,23.75
2019-03-02T20:13:11.358Z,23.85
2019-03-02T20:15:12.972Z,23.63
2019-03-02T20:17:14.614Z,23.86
2019-03-02T20:19:16.197Z,23.95
2019-03-02T20:21:17.924Z,23.97
2019-03-02T20:23:19.532Z,24.06
2019-03-02T20:25:21.130Z,24.05
2019-03-02T20:27:22.768Z,24.01
2019-03-02T20:29:24.361Z,23.96
2019-03-02T20:31:26.000Z,23.86
2019-03-02T20:33:27.602Z,24.07
2019-03-02T20:35:29.211Z,23.99
2019-03-02T20:37:30.824Z,24.12
2019-03-02T20:39:32.430Z,24.22
2019-03-02T20:41:34.038Z,24.11
2019-03-02T20:43:35.659Z,24.01
2019-03-02T20:45:37.258Z,23.91
2019-03-02T20:47:38.915Z,23.86
2019-03-02T20:49:40.633Z,23.81
2019-03-02T20:51:42.274Z,23.92
2019-03-02T20:53:43.875Z,23.85
2019-03-02T20:55:45.473Z,23.86
2019-03-02T20:57:47.104Z,23.89
2019-03-02T20:59:48.697Z,23.80
2019-03-02T21:01:50.296Z,23.75
2019-03-02T21:03:51.898Z,23.75
2019-03-02T21:05:53.499Z,23.56
2019-03-02T21:07:55.094Z,23.61
2019-03-02T21:09:56.720Z,23.72
2019-03-02T21:11:58.315Z,23.66
2019-03-02T21:13:59.914Z,23.22
2019-03-02T21:16:01.522Z,23.12
2019-03-02T21:18:03.253Z,23.25
2019-03-02T21:20:04.900Z,23.39
2019-03-02T21:22:06.516Z,23.46
2019-03-02T21:24:08.114Z,23.59
2019-03-02T21:26:09.767Z,23.85
2019-03-02T21:28:11.369Z,23.76
2019-03-02T21:30:12.970Z,23.88
2019-03-02T21:32:14.625Z,24.08
2019-03-02T21:34:16.222Z,24.05
2019-03-02T21:36:17.827Z,23.89
2019-03-02T21:38:19.452Z,23.69
2019-03-02T21:40:21.061Z,23.71
2019-03-02T21:42:22.698Z,23.62
2019-03-02T21:44:24.290Z,23.61
2019-03-02T21:46:26.208Z,23.63
2019-03-02T21:48:27.810Z,24.07
2019-03-02T21:50:29.416Z,24.20
2019-03-02T21:52:31.049Z,24.04
2019-03-02T21:54:32.645Z,24.02
2019-03-02T21:56:34.238Z,24.00
2019-03-02T21:58:35.838Z,24.01
2019-03-02T22:00:37.497Z,24.10
2019-03-02T22:02:39.114Z,23.90
2019-03-02T22:04:40.747Z,22.95
2019-03-02T22:06:42.359Z,23.02
2019-03-02T22:08:44.136Z,23.05
2019-03-02T22:10:45.728Z,23.21
2019-03-02T22:12:47.368Z,23.31
2019-03-02T22:14:48.966Z,23.36
2019-03-02T22:16:51.510Z,23.41
2019-03-02T22:18:53.124Z,23.43
2019-03-02T22:20:54.833Z,23.43
2019-03-02T22:22:56.485Z,23.42
2019-03-02T22:24:58.847Z,23.42
2019-03-02T22:27:00.493Z,23.43
2019-03-02T22:29:02.104Z,23.38
2019-03-02T22:31:03.720Z,23.37
2019-03-02T22:33:05.337Z,23.45
2019-03-02T22:35:06.947Z,23.49
2019-03-02T22:37:08.582Z,23.46
2019-03-02T22:39:10.230Z,23.50
2019-03-02T22:41:11.838Z,23.43
2019-03-02T22:43:13.437Z,23.51
2019-03-02T22:45:15.073Z,23.44
2019-03-02T22:47:16.699Z,23.43
2019-03-02T22:49:18.298Z,23.41
2019-03-02T22:51:19.904Z,23.46
2019-03-02T22:53:21.556Z,23.41
2019-03-02T22:55:23.154Z,23.41
2019-03-02T22:57:24.767Z,23.76
2019-03-02T22:59:26.420Z,23.93
2019-03-02T23:01:28.022Z,23.80
2019-03-02T23:03:29.633Z,23.79
2019-03-02T23:05:31.284Z,23.78
2019-03-02T23:07:32.937Z,23.21
2019-03-02T23:09:34.534Z,23.23
2019-03-02T23:11:36.133Z,23.49
2019-03-02T23:13:37.791Z,23.68
2019-03-02T23:15:40.020Z,23.83
2019-03-02T23:17:41.632Z,23.87
2019-03-02T23:19:43.251Z,23.93
2019-03-02T23:21:44.873Z,24.05
2019-03-02T23:23:46.477Z,23.69
2019-03-02T23:25:48.120Z,23.76
2019-03-02T23:27:49.759Z,23.69
2019-03-02T23:29:52.088Z,23.69
2019-03-02T23:31:53.772Z,23.78
2019-03-02T23:33:55.373Z,23.71
2019-03-02T23:35:56.984Z,23.84
2019-03-02T23:37:58.712Z,24.17
2019-03-02T23:40:00.305Z,23.72
2019-03-02T23:42:01.916Z,23.66
2019-03-02T23:44:03.548Z,23.66
2019-03-02T23:46:05.139Z,23.65
2019-03-02T23:48:06.729Z,23.00
2019-03-02T23:50:08.325Z,22.89
2019-03-02T23:52:09.949Z,22.86
2019-03-02T23:54:11.557Z,22.77
2019-03-02T23:56:13.172Z,22.67
2019-03-02T23:58:14.803Z,22.60
